KISO

Kinston Regional Jetport at Stallings Field Airport

Kinston, North Carolina, USA
KISO 181124Z 1812/1912 23007KT P6SM SCT070 FM181900 27008KT P6SM VCTS BKN040CB FM182300 22005KT P6SM SCT060 AMD LTD TO CLD VIS AND WIND
Issued Valid From Valid To
Jun-18 @ 11:24 UTC
(2 hours ago)
Jun-18 @ 12:00 UTC
(an hour ago)
Jun-19 @ 12:00 UTC
(in 23 hours)
Jun-18 @ 12:00 to Jun-18 @ 19:00
KISO 181124Z 1812/1912 23007KT P6SM SCT070
Wind Visibility Clouds
230° at 7 knots Greater than 6 miles
  • Scattered at 7,000' AGL
From Jun-18 @ 19:00 to Jun-18 @ 23:00
FM181900 27008KT P6SM VCTS BKN040CB
Wind Visibility Clouds Conditions
270° at 8 knots Greater than 6 miles
  • Broken at 4,000' AGL
  • Area Thunderstorm
From Jun-18 @ 23:00 to Jun-19 @ 12:00
FM182300 22005KT P6SM SCT060 AMD LTD TO CLD VIS AND WIND
Wind Visibility Clouds
220° at 5 knots Greater than 6 miles
  • Scattered at 6,000' AGL
KISO 181124Z 1812/1912 23007KT P6SM SCT070 FM181900 27008KT P6SM VCTS BKN040CB FM182300 22005KT P6SM SCT060 AMD LTD TO CLD VIS AND WIND
Issued Jun-18 @ 11:24 UTC
(2 hours ago)
Valid From Jun-18 @ 12:00 UTC
(an hour ago)
Valid To Jun-19 @ 12:00 UTC
(in 23 hours)
Jun-18 @ 12:00 - Jun-18 @ 19:00
Wind Visibility
230° at 7 knots Greater than 6 miles
Clouds
  • Scattered at 7,000' AGL
From Jun-18 @ 19:00 - Jun-18 @ 23:00
Wind Visibility
270° at 8 knots Greater than 6 miles
Clouds
  • Broken at 4,000' AGL
Conditions
  • Area Thunderstorm
From Jun-18 @ 23:00 - Jun-19 @ 12:00
Wind Visibility
220° at 5 knots Greater than 6 miles
Clouds
  • Scattered at 6,000' AGL